»·PEaware :: N241TM KTUS-KPHX

N241TM :: KTUS-KPHX

FLIGHT INFORMATION

Flight Status: Arrived
Operator: Privately registered:
United States
More flights under this callsign
Pilot: David L. (16466)
Aircraft: CIRRUS VISIONJET
(SF50)
More flights by this aircraft type
Origin: KTUS Tucson Intl
United States
Destination: KPHX Phoenix Sky Harbor Intl
United States
More flights between these airports :: More routes between these airports
Route: BURRO4 HOTTT PINNG1
File this flight plan on PilotEdge
Remarks:
Altitude:
(Current/Filed)
22,000ft
Speed:
(Current/Filed)
290kts
Departed: 30-Sep-23 11:01 AM
Arrived: 30-Sep-23 11:42 AM
Distance/Time
Traveled:
96nm/0:41
Distance/Time
To Go:
Arrived

Flight Plot

Page will automatically refresh every two minutes.

Flight plan parsing failed; only flown route is shown


Map Options




Map Legend


Flown Route
Filed Route
Departure Airport
Arrival Airport
Navaid (VOR, NDB)
Fix

Horizontal Profiles

Position Reports

Time Latitude Longitude Heading Altitude Ground
Speed
30-Sep-23 10:47 32.126355 -110.944701 135 2571ft 0kts
30-Sep-23 10:48 32.126355 -110.944701 135 2571ft 0kts
30-Sep-23 10:49 32.126355 -110.944701 135 2571ft 0kts
30-Sep-23 10:50 32.126355 -110.944701 135 2571ft 0kts
30-Sep-23 10:51 32.126355 -110.944701 135 2571ft 0kts
30-Sep-23 10:52 32.126355 -110.944701 135 2571ft 0kts
30-Sep-23 10:53 32.126355 -110.944701 135 2571ft 0kts
30-Sep-23 10:54 32.126355 -110.944701 135 2571ft 0kts
30-Sep-23 10:55 32.126896 -110.944951 275 2569ft 8kts
30-Sep-23 10:56 32.125193 -110.947063 219 2572ft 11kts
30-Sep-23 10:57 32.123869 -110.947020 223 2575ft 0kts
30-Sep-23 10:58 32.123869 -110.947020 223 2575ft 0kts
30-Sep-23 10:59 32.122753 -110.947189 133 2577ft 28kts
30-Sep-23 11:00 32.103900 -110.923466 147 3615ft 120kts
30-Sep-23 11:01 32.077042 -110.893027 143 5775ft 144kts
30-Sep-23 11:02 32.045585 -110.861423 182 8070ft 148kts
30-Sep-23 11:03 32.012431 -110.889646 220 10372ft 151kts
30-Sep-23 11:04 31.982194 -110.924657 222 12456ft 155kts
30-Sep-23 11:05 31.968219 -110.969111 287 14340ft 183kts
30-Sep-23 11:06 31.993660 -111.022835 290 16076ft 192kts
30-Sep-23 11:07 32.019060 -111.074560 291 17306ft 209kts
30-Sep-23 11:08 32.048556 -111.134593 290 18777ft 213kts
30-Sep-23 11:09 32.083268 -111.191494 337 20067ft 243kts
30-Sep-23 11:10 32.150894 -111.170354 15 21274ft 258kts
30-Sep-23 11:11 32.220367 -111.144849 14 22406ft 261kts
30-Sep-23 11:12 32.293594 -111.118002 15 22739ft 293kts
30-Sep-23 11:13 32.375346 -111.087905 15 22739ft 317kts
30-Sep-23 11:14 32.460997 -111.056329 15 22732ft 323kts
30-Sep-23 11:15 32.545789 -111.047070 324 22420ft 312kts
30-Sep-23 11:16 32.620917 -111.102343 321 20347ft 317kts
30-Sep-23 11:17 32.694601 -111.157655 321 18314ft 311kts
30-Sep-23 11:18 32.758259 -111.217858 296 17697ft 282kts
30-Sep-23 11:19 32.802331 -111.295219 296 16350ft 281kts
30-Sep-23 11:20 32.845835 -111.372283 296 15011ft 280kts
30-Sep-23 11:21 32.888932 -111.448805 297 13860ft 272kts
30-Sep-23 11:22 32.926930 -111.511897 301 13642ft 254kts
30-Sep-23 11:23 32.972623 -111.580173 302 13148ft 276kts
30-Sep-23 11:24 33.021591 -111.653427 301 12746ft 286kts
30-Sep-23 11:25 33.071861 -111.728809 301 12744ft 294kts
30-Sep-23 11:26 33.122918 -111.805494 301 11104ft 287kts
30-Sep-23 11:27 33.169818 -111.876089 301 10143ft 260kts
30-Sep-23 11:28 33.214507 -111.943478 301 8684ft 258kts
30-Sep-23 11:29 33.257244 -112.007912 301 8007ft 239kts
30-Sep-23 11:30 33.298871 -112.070734 302 6967ft 244kts
30-Sep-23 11:31 33.328618 -112.142085 289 5788ft 243kts
30-Sep-23 11:32 33.341835 -112.217093 264 5284ft 219kts
30-Sep-23 11:33 33.351313 -112.289534 318 5283ft 250kts
30-Sep-23 11:34 33.412292 -112.300545 31 5255ft 177kts
30-Sep-23 11:35 33.428329 -112.254368 95 4309ft 152kts
30-Sep-23 11:36 33.428750 -112.202583 94 3301ft 153kts
30-Sep-23 11:37 33.428815 -112.154643 94 3209ft 136kts
30-Sep-23 11:38 33.428840 -112.111209 95 2506ft 124kts
30-Sep-23 11:39 33.428914 -112.069674 97 1908ft 114kts
30-Sep-23 11:40 33.428891 -112.037722 99 1335ft 93kts
30-Sep-23 11:41 33.428846 -112.019556 89 1113ft 22kts
30-Sep-23 11:42 33.427752 -112.018512 269 1113ft 18kts
30-Sep-23 11:43 33.425959 -112.021139 179 1113ft 14kts

Navigation Log

Ident Type
Flight plan parsing failed, navigation log unavailable